createdAt,value
2017-07-16T00:00:40.954Z,10.83
2017-07-16T00:01:40.300Z,10.8
2017-07-16T00:02:40.613Z,10.77
2017-07-16T00:03:40.275Z,10.77
2017-07-16T00:04:40.630Z,10.73
2017-07-16T00:05:40.268Z,10.8
2017-07-16T00:06:40.577Z,10.73
2017-07-16T00:07:40.240Z,10.75
2017-07-16T00:08:40.588Z,10.75
2017-07-16T00:09:40.558Z,10.72
2017-07-16T00:10:40.218Z,10.67
2017-07-16T00:11:40.538Z,10.65
2017-07-16T00:12:40.531Z,10.72
2017-07-16T00:13:40.196Z,10.65
2017-07-16T00:14:40.516Z,10.75
2017-07-16T00:15:40.525Z,10.7
2017-07-16T00:16:40.168Z,10.65
2017-07-16T00:17:40.163Z,10.58
2017-07-16T00:18:40.156Z,10.54
2017-07-16T00:19:40.167Z,10.55
2017-07-16T00:20:40.139Z,10.49
2017-07-16T00:21:40.131Z,10.52
2017-07-16T00:22:40.124Z,10.47
2017-07-16T00:23:40.457Z,10.42
2017-07-16T00:24:40.107Z,10.41
2017-07-16T00:25:40.139Z,10.39
2017-07-16T00:26:40.743Z,10.38
2017-07-16T00:27:40.424Z,10.31
2017-07-16T00:28:40.404Z,10.31
2017-07-16T00:29:40.085Z,10.33
2017-07-16T00:30:40.056Z,10.31
2017-07-16T00:31:40.376Z,10.31
2017-07-16T00:32:40.044Z,10.23
2017-07-16T00:33:40.031Z,10.23
2017-07-16T00:34:40.025Z,10.32
2017-07-16T00:35:40.371Z,10.26
2017-07-16T00:36:40.007Z,10.15
2017-07-16T00:37:40.326Z,10.18
2017-07-16T00:38:40.010Z,10.14
2017-07-16T00:39:39.980Z,10.15
2017-07-16T00:40:39.972Z,10.14
2017-07-16T00:41:39.984Z,10.17
2017-07-16T00:42:40.300Z,10.14
2017-07-16T00:43:40.277Z,10.14
2017-07-16T00:44:40.594Z,10.14
2017-07-16T00:45:39.929Z,10.03
2017-07-16T00:46:39.921Z,10.11
2017-07-16T00:47:39.918Z,10.02
2017-07-16T00:48:39.925Z,10.13
2017-07-16T00:49:39.900Z,10.17
2017-07-16T00:50:40.218Z,10.02
2017-07-16T00:51:39.885Z,9.96
2017-07-16T00:52:40.219Z,10.07
2017-07-16T00:53:40.526Z,10.02
2017-07-16T00:54:40.209Z,10.05
2017-07-16T00:55:40.949Z,10.05
2017-07-16T00:56:40.175Z,10
2017-07-16T00:57:39.837Z,9.96
2017-07-16T00:58:39.828Z,9.92
2017-07-16T00:59:39.833Z,9.93
2017-07-16T01:00:40.141Z,9.9
2017-07-16T01:01:39.812Z,9.98
2017-07-16T01:02:39.796Z,9.92
2017-07-16T01:03:40.121Z,9.96
2017-07-16T01:04:39.783Z,9.96
2017-07-16T01:05:40.110Z,9.9
2017-07-16T01:06:39.766Z,9.92
2017-07-16T01:07:39.757Z,9.78
2017-07-16T01:08:39.750Z,9.82
2017-07-16T01:09:39.744Z,9.81
2017-07-16T01:10:39.759Z,9.81
2017-07-16T01:11:39.728Z,9.81
2017-07-16T01:12:39.719Z,9.8
2017-07-16T01:13:40.076Z,9.82
2017-07-16T01:14:40.050Z,9.77
2017-07-16T01:15:39.695Z,9.78
2017-07-16T01:16:39.695Z,9.82
2017-07-16T01:17:40.046Z,9.78
2017-07-16T01:18:39.669Z,9.78
2017-07-16T01:19:39.990Z,9.75
2017-07-16T01:20:39.983Z,9.71
2017-07-16T01:21:39.647Z,9.72
2017-07-16T01:22:39.966Z,9.72
2017-07-16T01:23:39.959Z,9.72
2017-07-16T01:24:39.958Z,9.66
2017-07-16T01:25:39.637Z,9.7
2017-07-16T01:26:39.612Z,9.67
2017-07-16T01:27:39.600Z,9.66
2017-07-16T01:28:40.258Z,9.71
2017-07-16T01:29:39.584Z,9.67
2017-07-16T01:30:39.572Z,9.59
2017-07-16T01:31:39.569Z,9.64
2017-07-16T01:32:39.910Z,9.52
2017-07-16T01:33:40.241Z,9.62
2017-07-16T01:34:39.867Z,9.63
2017-07-16T01:35:39.865Z,9.59
2017-07-16T01:36:39.529Z,9.59
2017-07-16T01:37:39.518Z,9.53
2017-07-16T01:38:39.503Z,9.66
2017-07-16T01:39:39.495Z,9.5
2017-07-16T01:40:39.493Z,9.47
2017-07-16T01:41:39.478Z,9.53
2017-07-16T01:42:39.798Z,9.52
2017-07-16T01:43:39.786Z,9.55
2017-07-16T01:44:39.459Z,9.5
2017-07-16T01:45:40.099Z,9.47
2017-07-16T01:46:39.788Z,9.52
2017-07-16T01:47:39.624Z,9.52
2017-07-16T01:48:39.454Z,9.5
2017-07-16T01:49:39.417Z,9.48
2017-07-16T01:50:39.726Z,9.44
2017-07-16T01:51:39.716Z,9.47
2017-07-16T01:52:39.379Z,9.44
2017-07-16T01:53:40.023Z,9.42
2017-07-16T01:54:39.376Z,9.38
2017-07-16T01:55:39.677Z,9.39
2017-07-16T01:56:39.679Z,9.3
2017-07-16T01:57:39.669Z,9.27
2017-07-16T01:58:39.332Z,9.27
2017-07-16T01:59:39.331Z,9.37
2017-07-16T02:00:39.305Z,9.35
2017-07-16T02:01:39.628Z,9.37
2017-07-16T02:02:39.622Z,9.34
2017-07-16T02:03:39.949Z,9.35
2017-07-16T02:04:39.609Z,9.29
2017-07-16T02:05:39.805Z,9.34
2017-07-16T02:06:39.271Z,9.32
2017-07-16T02:07:39.241Z,9.3
2017-07-16T02:08:39.891Z,9.34
2017-07-16T02:09:39.558Z,9.29
2017-07-16T02:10:39.236Z,9.32
2017-07-16T02:11:39.533Z,9.19
2017-07-16T02:12:39.544Z,9.19
2017-07-16T02:13:39.842Z,9.17
2017-07-16T02:14:39.180Z,9.2
2017-07-16T02:15:39.168Z,9.14
2017-07-16T02:16:39.159Z,9.23
2017-07-16T02:17:39.809Z,9.17
2017-07-16T02:18:39.489Z,9.23
2017-07-16T02:19:39.456Z,9.16
2017-07-16T02:20:39.125Z,9.11
2017-07-16T02:21:39.463Z,9.14
2017-07-16T02:22:39.770Z,9.08
2017-07-16T02:23:39.128Z,9.01
2017-07-16T02:24:39.756Z,9.09
2017-07-16T02:25:39.079Z,9.04
2017-07-16T02:26:39.066Z,9
2017-07-16T02:27:39.066Z,8.98
2017-07-16T02:28:39.063Z,9.16
2017-07-16T02:29:39.376Z,8.98
2017-07-16T02:30:39.355Z,9.04
2017-07-16T02:31:39.362Z,9
2017-07-16T02:32:39.017Z,9.01
2017-07-16T02:33:39.331Z,9.04
2017-07-16T02:34:38.999Z,9
2017-07-16T02:35:38.982Z,8.95
2017-07-16T02:36:39.308Z,8.98
2017-07-16T02:37:38.963Z,8.9
2017-07-16T02:38:39.611Z,8.95
2017-07-16T02:39:38.943Z,8.97
2017-07-16T02:40:39.261Z,8.95
2017-07-16T02:41:39.255Z,8.92
2017-07-16T02:42:38.917Z,8.97
2017-07-16T02:43:38.930Z,8.94
2017-07-16T02:44:38.899Z,8.94
2017-07-16T02:45:39.212Z,9.01
2017-07-16T02:46:39.206Z,9.04
2017-07-16T02:47:39.199Z,9.01
2017-07-16T02:48:39.189Z,8.95
2017-07-16T02:49:38.850Z,8.98
2017-07-16T02:50:38.841Z,9.03
2017-07-16T02:51:39.165Z,8.87
2017-07-16T02:52:38.843Z,9.01
2017-07-16T02:53:39.470Z,8.95
2017-07-16T02:54:38.805Z,8.9
2017-07-16T02:55:39.138Z,9
2017-07-16T02:56:38.786Z,8.92
2017-07-16T02:57:39.442Z,8.98
2017-07-16T02:58:39.095Z,8.95
2017-07-16T02:59:38.770Z,8.98
2017-07-16T03:00:39.075Z,8.97
2017-07-16T03:01:38.736Z,8.92
2017-07-16T03:02:39.055Z,8.92
2017-07-16T03:03:38.717Z,8.82
2017-07-16T03:04:38.705Z,8.82
2017-07-16T03:05:38.716Z,8.87
2017-07-16T03:06:38.692Z,8.8
2017-07-16T03:07:38.678Z,8.89
2017-07-16T03:08:38.667Z,8.72
2017-07-16T03:09:38.674Z,8.72
2017-07-16T03:10:39.312Z,8.71
2017-07-16T03:11:38.640Z,8.74
2017-07-16T03:12:38.632Z,8.69
2017-07-16T03:13:38.953Z,8.71
2017-07-16T03:14:38.610Z,8.71
2017-07-16T03:15:38.632Z,8.69
2017-07-16T03:16:38.920Z,8.68
2017-07-16T03:17:38.581Z,8.68
2017-07-16T03:18:38.903Z,8.71
2017-07-16T03:19:38.892Z,8.76
2017-07-16T03:20:38.565Z,8.72
2017-07-16T03:21:38.543Z,8.74
2017-07-16T03:22:38.542Z,8.71
2017-07-16T03:23:38.855Z,8.71
2017-07-16T03:24:38.529Z,8.71
2017-07-16T03:25:38.523Z,8.8
2017-07-16T03:26:39.183Z,8.72
2017-07-16T03:27:39.161Z,8.71
2017-07-16T03:28:38.478Z,8.8
2017-07-16T03:29:38.789Z,8.86
2017-07-16T03:30:38.802Z,8.86
2017-07-16T03:31:38.774Z,8.83
2017-07-16T03:32:38.432Z,8.87
2017-07-16T03:33:38.424Z,8.87
2017-07-16T03:34:38.418Z,8.9
2017-07-16T03:35:38.766Z,8.87
2017-07-16T03:36:38.393Z,8.85
2017-07-16T03:37:39.055Z,8.8
2017-07-16T03:38:38.704Z,8.83
2017-07-16T03:39:38.706Z,8.8
2017-07-16T03:40:38.394Z,8.83
2017-07-16T03:41:38.678Z,8.76
2017-07-16T03:42:38.337Z,8.83
2017-07-16T03:43:39.018Z,8.85
2017-07-16T03:44:38.980Z,8.85
2017-07-16T03:45:38.638Z,8.92
2017-07-16T03:46:38.646Z,8.83
2017-07-16T03:47:38.620Z,8.94
2017-07-16T03:48:38.278Z,8.89
2017-07-16T03:49:38.271Z,9
2017-07-16T03:50:38.611Z,8.95
2017-07-16T03:51:38.252Z,8.94
2017-07-16T03:52:38.241Z,8.92
2017-07-16T03:53:38.240Z,9.03
2017-07-16T03:54:38.904Z,8.95
2017-07-16T03:55:38.214Z,8.95
2017-07-16T03:56:38.533Z,9.03
2017-07-16T03:57:38.522Z,9
2017-07-16T03:58:38.840Z,9.04
2017-07-16T03:59:38.193Z,8.98
2017-07-16T04:00:38.164Z,8.92
2017-07-16T04:01:38.486Z,8.97
2017-07-16T04:02:38.474Z,9.01
2017-07-16T04:03:38.136Z,9.03
2017-07-16T04:04:38.145Z,8.98
2017-07-16T04:05:38.776Z,9.08
2017-07-16T04:06:38.126Z,9.05
2017-07-16T04:07:38.100Z,9.08
2017-07-16T04:08:38.086Z,9.03
2017-07-16T04:09:38.279Z,9
2017-07-16T04:10:38.069Z,9
2017-07-16T04:11:38.392Z,9.04
2017-07-16T04:12:38.049Z,9
2017-07-16T04:13:38.040Z,9.03
2017-07-16T04:14:38.358Z,9.05
2017-07-16T04:15:38.021Z,9
2017-07-16T04:16:38.359Z,9.08
2017-07-16T04:17:38.003Z,9.01
2017-07-16T04:18:38.320Z,9.11
2017-07-16T04:19:38.316Z,9.11
2017-07-16T04:20:37.972Z,9.05
2017-07-16T04:21:38.292Z,9.01
2017-07-16T04:22:37.951Z,9.12
2017-07-16T04:23:38.289Z,9.11
2017-07-16T04:24:38.263Z,9.03
2017-07-16T04:25:37.924Z,9.09
2017-07-16T04:26:37.939Z,9.19
2017-07-16T04:27:37.907Z,9.17
2017-07-16T04:28:38.224Z,9.16
2017-07-16T04:29:38.244Z,9.19
2017-07-16T04:30:37.903Z,9.17
2017-07-16T04:31:37.866Z,9.21
2017-07-16T04:32:38.191Z,9.24
2017-07-16T04:33:37.853Z,9.23
2017-07-16T04:34:38.169Z,9.23
2017-07-16T04:35:38.156Z,9.21
2017-07-16T04:36:38.152Z,9.23
2017-07-16T04:37:37.821Z,9.2
2017-07-16T04:38:37.815Z,9.23
2017-07-16T04:39:37.794Z,9.2
2017-07-16T04:40:38.112Z,9.17
2017-07-16T04:41:37.776Z,9.24
2017-07-16T04:42:38.107Z,9.19
2017-07-16T04:43:37.755Z,9.19
2017-07-16T04:44:38.076Z,9.17
2017-07-16T04:45:38.061Z,9.19
2017-07-16T04:46:38.064Z,9.19
2017-07-16T04:47:37.720Z,9.21
2017-07-16T04:48:38.032Z,9.32
2017-07-16T04:49:38.047Z,9.29
2017-07-16T04:50:38.032Z,9.3
2017-07-16T04:51:37.700Z,9.29
2017-07-16T04:52:37.683Z,9.35
2017-07-16T04:53:38.317Z,9.35
2017-07-16T04:54:37.667Z,9.41
2017-07-16T04:55:37.641Z,9.29
2017-07-16T04:56:37.631Z,9.34
2017-07-16T04:57:38.305Z,9.32
2017-07-16T04:58:37.944Z,9.48
2017-07-16T04:59:37.932Z,9.44
2017-07-16T05:00:37.923Z,9.45
2017-07-16T05:01:37.932Z,9.56
2017-07-16T05:02:37.577Z,9.57
2017-07-16T05:03:37.576Z,9.64
2017-07-16T05:04:38.267Z,9.67
2017-07-16T05:05:37.880Z,9.8
2017-07-16T05:06:37.552Z,9.85
2017-07-16T05:07:37.875Z,9.9
2017-07-16T05:08:37.849Z,9.93
2017-07-16T05:09:37.861Z,9.95
2017-07-16T05:10:37.844Z,10.03
2017-07-16T05:11:37.823Z,10.07
2017-07-16T05:12:37.485Z,10.25
2017-07-16T05:13:37.478Z,10.23
2017-07-16T05:14:37.793Z,10.31
2017-07-16T05:15:37.790Z,10.36
2017-07-16T05:16:37.774Z,10.33
2017-07-16T05:17:38.111Z,10.47
2017-07-16T05:18:37.432Z,10.46
2017-07-16T05:19:37.770Z,10.49
2017-07-16T05:20:37.748Z,10.54
2017-07-16T05:21:37.761Z,10.55
2017-07-16T05:22:37.402Z,10.52
2017-07-16T05:23:38.057Z,10.57
2017-07-16T05:24:37.465Z,10.59
2017-07-16T05:25:37.373Z,10.72
2017-07-16T05:26:37.695Z,10.67
2017-07-16T05:27:37.687Z,10.65
2017-07-16T05:28:37.363Z,10.73
2017-07-16T05:29:37.669Z,10.79
2017-07-16T05:30:37.331Z,10.76
2017-07-16T05:31:37.322Z,10.88
2017-07-16T05:32:37.667Z,10.9
2017-07-16T05:33:37.657Z,10.95
2017-07-16T05:34:37.295Z,11
2017-07-16T05:35:37.293Z,11.05
2017-07-16T05:36:37.611Z,11.16
2017-07-16T05:37:37.289Z,11.15
2017-07-16T05:38:37.927Z,11.23
2017-07-16T05:39:37.257Z,11.24
2017-07-16T05:40:37.251Z,11.34
2017-07-16T05:41:37.281Z,11.49
2017-07-16T05:42:37.562Z,11.51
2017-07-16T05:43:37.553Z,11.52
2017-07-16T05:44:37.239Z,11.63
2017-07-16T05:45:37.538Z,11.61
2017-07-16T05:46:37.534Z,11.71
2017-07-16T05:47:37.522Z,11.81
2017-07-16T05:48:37.203Z,11.91
2017-07-16T05:49:37.515Z,12.01
2017-07-16T05:50:37.498Z,12.04
2017-07-16T05:51:37.494Z,12.03
2017-07-16T05:52:37.154Z,12.15
2017-07-16T05:53:37.175Z,12.15
2017-07-16T05:54:37.477Z,12.25
2017-07-16T05:55:37.463Z,12.33
2017-07-16T05:56:37.474Z,12.37
2017-07-16T05:57:37.445Z,12.36
2017-07-16T05:58:37.111Z,12.38
2017-07-16T05:59:37.761Z,12.44
2017-07-16T06:00:37.104Z,12.41
2017-07-16T06:01:37.430Z,12.55
2017-07-16T06:02:37.433Z,12.47
2017-07-16T06:03:37.406Z,12.63
2017-07-16T06:04:37.065Z,12.56
2017-07-16T06:05:37.717Z,12.61
2017-07-16T06:06:37.051Z,12.73
2017-07-16T06:07:37.044Z,12.76
2017-07-16T06:08:37.365Z,12.8
2017-07-16T06:09:37.031Z,12.89
2017-07-16T06:10:37.052Z,12.89
2017-07-16T06:11:37.355Z,12.96
2017-07-16T06:12:37.665Z,13.13
2017-07-16T06:13:37.023Z,13.17
2017-07-16T06:14:37.000Z,13.31
2017-07-16T06:15:37.319Z,13.32
2017-07-16T06:16:37.313Z,13.45
2017-07-16T06:17:37.632Z,13.51
2017-07-16T06:18:36.971Z,13.55
2017-07-16T06:19:37.625Z,13.66
2017-07-16T06:20:37.293Z,13.79
2017-07-16T06:21:37.279Z,13.9
2017-07-16T06:22:37.274Z,14.06
2017-07-16T06:23:36.938Z,14.11
2017-07-16T06:24:36.943Z,14.13
2017-07-16T06:25:36.923Z,14.19
2017-07-16T06:26:37.247Z,14.28
2017-07-16T06:27:37.573Z,14.27
2017-07-16T06:28:36.918Z,14.3
2017-07-16T06:29:36.913Z,14.31
2017-07-16T06:30:36.897Z,14.31
2017-07-16T06:31:36.889Z,14.39
2017-07-16T06:32:36.901Z,14.53
2017-07-16T06:33:36.882Z,14.51
2017-07-16T06:34:36.873Z,14.52
2017-07-16T06:35:37.201Z,14.48
2017-07-16T06:36:37.188Z,14.69
2017-07-16T06:37:36.854Z,14.7
2017-07-16T06:38:36.851Z,14.82
2017-07-16T06:39:36.861Z,15.02
2017-07-16T06:40:36.838Z,15.1
2017-07-16T06:41:37.167Z,15.22
2017-07-16T06:42:37.159Z,15.34
2017-07-16T06:43:37.159Z,15.6
2017-07-16T06:44:37.153Z,15.78
2017-07-16T06:45:37.781Z,16.06
2017-07-16T06:46:37.484Z,16.3
2017-07-16T06:47:37.128Z,16.81
2017-07-16T06:48:37.132Z,17.22
2017-07-16T06:49:37.454Z,17.83
2017-07-16T06:50:36.791Z,18.39
2017-07-16T06:51:36.786Z,19.19
2017-07-16T06:52:36.784Z,20.01
2017-07-16T06:53:36.779Z,20.61
2017-07-16T06:54:36.778Z,21.18
2017-07-16T06:55:37.104Z,21.27
2017-07-16T06:56:36.773Z,21.48
2017-07-16T06:57:37.116Z,21.64
2017-07-16T06:58:36.772Z,21.82
2017-07-16T06:59:37.100Z,21.99
2017-07-16T07:00:37.370Z,22.12
2017-07-16T07:01:36.764Z,22.3
2017-07-16T07:02:37.138Z,22.6
2017-07-16T07:03:36.783Z,23.03
2017-07-16T07:04:37.166Z,23.41
2017-07-16T07:05:36.764Z,23.6
2017-07-16T07:06:37.088Z,23.78
2017-07-16T07:07:37.101Z,24
2017-07-16T07:08:37.104Z,24.32
2017-07-16T07:09:36.759Z,24.45
2017-07-16T07:10:37.093Z,24.83
2017-07-16T07:11:36.785Z,25.04
2017-07-16T07:12:37.099Z,25.15
2017-07-16T07:13:37.445Z,25.19
2017-07-16T07:14:36.782Z,25.11
2017-07-16T07:15:37.181Z,25.2
2017-07-16T07:16:37.098Z,25.04
2017-07-16T07:17:36.771Z,25.09
2017-07-16T07:18:36.771Z,25.12
2017-07-16T07:19:36.772Z,25.24
2017-07-16T07:20:37.107Z,25.38
2017-07-16T07:21:36.779Z,25.37
2017-07-16T07:22:36.780Z,25.47
2017-07-16T07:23:37.473Z,25.56
2017-07-16T07:24:36.784Z,25.32
2017-07-16T07:25:37.123Z,25.27
2017-07-16T07:26:37.112Z,25.22
2017-07-16T07:27:37.127Z,25.34
2017-07-16T07:28:36.792Z,25.32
2017-07-16T07:29:37.150Z,25.47
2017-07-16T07:30:36.799Z,25.47
2017-07-16T07:31:37.130Z,25.26
2017-07-16T07:32:36.804Z,25.12
2017-07-16T07:33:36.804Z,25.08
2017-07-16T07:34:37.469Z,25.17
2017-07-16T07:35:36.811Z,25.49
2017-07-16T07:36:37.156Z,25.6
2017-07-16T07:37:37.146Z,25.91
2017-07-16T07:38:37.149Z,26.03
2017-07-16T07:39:36.832Z,26.03
2017-07-16T07:40:36.838Z,25.89
2017-07-16T07:41:36.833Z,25.71
2017-07-16T07:42:36.835Z,25.63
2017-07-16T07:43:37.187Z,25.64
2017-07-16T07:44:37.173Z,25.74
2017-07-16T07:45:36.864Z,25.7
2017-07-16T07:46:36.850Z,25.74
2017-07-16T07:47:37.185Z,26.01
2017-07-16T07:48:37.215Z,26.26
2017-07-16T07:49:37.526Z,26.37
2017-07-16T07:50:37.189Z,26.81
2017-07-16T07:51:37.244Z,27
2017-07-16T07:52:36.874Z,26.72
2017-07-16T07:53:37.215Z,26.27
2017-07-16T07:54:37.217Z,26.04
2017-07-16T07:55:36.898Z,25.88
2017-07-16T07:56:36.886Z,26.06
2017-07-16T07:57:37.232Z,26.31
2017-07-16T07:58:37.224Z,26.52
2017-07-16T07:59:37.251Z,26.64
2017-07-16T08:00:36.902Z,26.38
2017-07-16T08:01:36.907Z,26.27
2017-07-16T08:02:37.298Z,26.41
2017-07-16T08:03:36.916Z,26.74
2017-07-16T08:04:36.920Z,27.11
2017-07-16T08:05:36.941Z,27.41
2017-07-16T08:06:37.255Z,27.48
2017-07-16T08:07:37.590Z,27.74
2017-07-16T08:08:36.933Z,27.81
2017-07-16T08:09:37.267Z,28.05
2017-07-16T08:10:36.939Z,28.08
2017-07-16T08:11:36.951Z,28.2
2017-07-16T08:12:37.275Z,28.36
2017-07-16T08:13:36.949Z,28.23
2017-07-16T08:14:37.153Z,28.05
2017-07-16T08:15:37.631Z,27.96
2017-07-16T08:16:37.291Z,27.65
2017-07-16T08:17:37.618Z,27.24
2017-07-16T08:18:37.289Z,26.94
2017-07-16T08:19:37.299Z,26.61
2017-07-16T08:20:37.336Z,26.34
2017-07-16T08:21:37.298Z,26.04
2017-07-16T08:22:36.972Z,25.64
2017-07-16T08:23:37.630Z,25.26
2017-07-16T08:24:36.983Z,24.82
2017-07-16T08:25:36.978Z,24.49
2017-07-16T08:26:36.984Z,24.19
2017-07-16T08:27:37.315Z,23.79
2017-07-16T08:28:36.984Z,23.4
2017-07-16T08:29:37.328Z,23
2017-07-16T08:30:37.318Z,22.76
2017-07-16T08:31:37.008Z,22.61
2017-07-16T08:32:37.018Z,22.45
2017-07-16T08:33:36.989Z,22.24
2017-07-16T08:34:37.651Z,21.83
2017-07-16T08:35:36.994Z,21.45
2017-07-16T08:36:36.995Z,21.28
2017-07-16T08:37:37.003Z,21.12
2017-07-16T08:38:36.997Z,20.91
2017-07-16T08:39:37.655Z,20.91
2017-07-16T08:40:36.998Z,20.97
2017-07-16T08:41:37.329Z,21.12
2017-07-16T08:42:37.353Z,21.25
2017-07-16T08:43:37.658Z,21.25
2017-07-16T08:44:37.022Z,21.46
2017-07-16T08:45:37.707Z,21.43
2017-07-16T08:46:36.999Z,21.52
2017-07-16T08:47:37.673Z,21.51
2017-07-16T08:48:37.029Z,21.61
2017-07-16T08:49:37.016Z,21.64
2017-07-16T08:50:37.369Z,21.59
2017-07-16T08:51:37.014Z,21.73
2017-07-16T08:52:37.333Z,21.71
2017-07-16T08:53:37.003Z,21.74
2017-07-16T08:54:37.688Z,21.74
2017-07-16T08:55:37.344Z,21.7
2017-07-16T08:56:37.013Z,21.66
2017-07-16T08:57:37.345Z,21.49
2017-07-16T08:58:37.352Z,21.58
2017-07-16T08:59:37.009Z,21.46
2017-07-16T09:00:37.330Z,21.45
2017-07-16T09:01:37.667Z,21.37
2017-07-16T09:02:37.020Z,21.25
2017-07-16T09:03:37.338Z,21.12
2017-07-16T09:04:37.340Z,21.08
2017-07-16T09:05:37.666Z,20.86
2017-07-16T09:06:37.015Z,20.67
2017-07-16T09:07:37.336Z,20.49
2017-07-16T09:08:37.023Z,20.32
2017-07-16T09:09:37.679Z,20.15
2017-07-16T09:10:37.005Z,20.01
2017-07-16T09:11:37.005Z,19.9
2017-07-16T09:12:37.333Z,19.82
2017-07-16T09:13:37.665Z,19.78
2017-07-16T09:14:37.670Z,19.86
2017-07-16T09:15:37.334Z,19.89
2017-07-16T09:16:37.332Z,20.07
2017-07-16T09:17:37.018Z,20.26
2017-07-16T09:18:37.333Z,20.4
2017-07-16T09:19:37.333Z,20.61
2017-07-16T09:20:37.003Z,20.76
2017-07-16T09:21:36.999Z,20.86
2017-07-16T09:22:37.295Z,21
2017-07-16T09:23:37.455Z,21.08
2017-07-16T09:24:37.330Z,21.22
2017-07-16T09:25:37.344Z,21.15
2017-07-16T09:26:37.000Z,21.13
2017-07-16T09:27:37.335Z,21.31
2017-07-16T09:28:37.341Z,21.4
2017-07-16T09:29:37.328Z,21.45
2017-07-16T09:30:37.011Z,21.49
2017-07-16T09:31:37.329Z,21.62
2017-07-16T09:32:37.327Z,21.71
2017-07-16T09:33:37.731Z,21.8
2017-07-16T09:34:37.172Z,21.96
2017-07-16T09:35:37.403Z,21.86
2017-07-16T09:36:37.068Z,21.96
2017-07-16T09:37:37.214Z,21.96
2017-07-16T09:38:37.377Z,21.9
2017-07-16T09:39:37.366Z,21.97
2017-07-16T09:40:38.095Z,21.96
2017-07-16T09:41:37.650Z,21.94
2017-07-16T09:42:37.385Z,21.94
2017-07-16T09:43:37.372Z,22.04
2017-07-16T09:44:37.296Z,21.97
2017-07-16T09:45:37.973Z,22
2017-07-16T09:46:38.041Z,22.04
2017-07-16T09:47:38.513Z,21.93
2017-07-16T09:48:38.042Z,21.89
2017-07-16T09:49:37.779Z,22
2017-07-16T09:50:37.412Z,22.05
2017-07-16T09:51:37.817Z,22.15
2017-07-16T09:52:37.898Z,22.31
2017-07-16T09:53:37.216Z,22.49
2017-07-16T09:54:36.997Z,22.7
2017-07-16T09:55:37.341Z,22.75
2017-07-16T09:56:36.998Z,23.01
2017-07-16T09:57:37.660Z,22.99
2017-07-16T09:58:37.338Z,22.88
2017-07-16T09:59:37.019Z,22.52
2017-07-16T10:00:37.470Z,22.3
2017-07-16T10:01:37.017Z,22.07
2017-07-16T10:02:37.095Z,21.82
2017-07-16T10:03:37.395Z,21.56
2017-07-16T10:04:37.376Z,21.4
2017-07-16T10:05:37.335Z,21.31
2017-07-16T10:06:37.066Z,21.19
2017-07-16T10:07:37.076Z,21.15
2017-07-16T10:08:37.123Z,21.08
2017-07-16T10:09:37.052Z,21.06
2017-07-16T10:10:37.353Z,20.97
2017-07-16T10:11:37.432Z,21.08
2017-07-16T10:12:37.599Z,21.09
2017-07-16T10:13:37.037Z,21.06
2017-07-16T10:14:37.430Z,21.12
2017-07-16T10:15:37.342Z,21.08
2017-07-16T10:16:37.004Z,21.15
2017-07-16T10:17:37.008Z,21.18
2017-07-16T10:18:37.003Z,21.16
2017-07-16T10:19:37.006Z,21.28
2017-07-16T10:20:37.335Z,21.38
2017-07-16T10:21:37.337Z,21.59
2017-07-16T10:22:37.013Z,21.74
2017-07-16T10:23:37.675Z,21.83
2017-07-16T10:24:37.668Z,21.99
2017-07-16T10:25:37.006Z,22.09
2017-07-16T10:26:37.029Z,22.24
2017-07-16T10:27:37.337Z,22.24
2017-07-16T10:28:37.009Z,22.48
2017-07-16T10:29:37.338Z,22.55
2017-07-16T10:30:37.338Z,22.67
2017-07-16T10:31:37.016Z,22.91
2017-07-16T10:32:37.341Z,23.1
2017-07-16T10:33:37.355Z,23.25
2017-07-16T10:34:37.355Z,23.47
2017-07-16T10:35:37.011Z,23.53
2017-07-16T10:36:37.014Z,23.48
2017-07-16T10:37:37.361Z,23.38
2017-07-16T10:38:37.343Z,23.19
2017-07-16T10:39:37.019Z,23.07
2017-07-16T10:40:37.017Z,22.88
2017-07-16T10:41:37.018Z,22.78
2017-07-16T10:42:37.689Z,22.61
2017-07-16T10:43:37.347Z,22.42
2017-07-16T10:44:37.021Z,22.33
2017-07-16T10:45:37.035Z,22.3
2017-07-16T10:46:37.032Z,22.38
2017-07-16T10:47:37.358Z,22.38
2017-07-16T10:48:37.025Z,22.39
2017-07-16T10:49:37.367Z,22.42
2017-07-16T10:50:37.033Z,22.42
2017-07-16T10:51:37.354Z,22.39
2017-07-16T10:52:37.355Z,22.41
2017-07-16T10:53:37.373Z,22.36
2017-07-16T10:54:37.689Z,22.41
2017-07-16T10:55:37.032Z,22.52
2017-07-16T10:56:37.030Z,22.55
2017-07-16T10:57:37.717Z,22.55
2017-07-16T10:58:37.361Z,22.63
2017-07-16T10:59:37.361Z,22.67
2017-07-16T11:00:37.379Z,22.61
2017-07-16T11:01:37.361Z,22.55
2017-07-16T11:02:37.041Z,22.48
2017-07-16T11:03:37.361Z,22.57
2017-07-16T11:04:37.368Z,22.6
2017-07-16T11:05:37.368Z,22.51
2017-07-16T11:06:37.375Z,22.45
2017-07-16T11:07:37.063Z,22.3
2017-07-16T11:08:37.041Z,22.16
2017-07-16T11:09:37.047Z,22
2017-07-16T11:10:37.042Z,21.86
2017-07-16T11:11:37.046Z,21.62
2017-07-16T11:12:37.050Z,21.36
2017-07-16T11:13:37.378Z,21.25
2017-07-16T11:14:37.046Z,21.18
2017-07-16T11:15:37.047Z,21.06
2017-07-16T11:16:37.374Z,21.09
2017-07-16T11:17:37.055Z,21.12
2017-07-16T11:18:37.053Z,21.21
2017-07-16T11:19:37.705Z,21.19
2017-07-16T11:20:37.047Z,21.25
2017-07-16T11:21:37.049Z,21.4
2017-07-16T11:22:37.375Z,21.46
2017-07-16T11:23:37.392Z,21.64
2017-07-16T11:24:37.050Z,21.59
2017-07-16T11:25:37.386Z,21.68
2017-07-16T11:26:37.378Z,21.62
2017-07-16T11:27:37.388Z,21.78
2017-07-16T11:28:37.707Z,21.94
2017-07-16T11:29:37.721Z,22.09
2017-07-16T11:30:37.052Z,22.2
2017-07-16T11:31:37.399Z,22.34
2017-07-16T11:32:37.385Z,22.46
2017-07-16T11:33:37.073Z,22.51
2017-07-16T11:34:37.725Z,22.63
2017-07-16T11:35:37.054Z,22.49
2017-07-16T11:36:37.069Z,22.55
2017-07-16T11:37:37.077Z,22.55
2017-07-16T11:38:37.389Z,22.54
2017-07-16T11:39:37.402Z,22.59
2017-07-16T11:40:37.059Z,22.57
2017-07-16T11:41:37.725Z,22.57
2017-07-16T11:42:37.391Z,22.64
2017-07-16T11:43:37.390Z,22.71
2017-07-16T11:44:37.066Z,22.79
2017-07-16T11:45:37.743Z,22.76
2017-07-16T11:46:37.394Z,22.73
2017-07-16T11:47:37.072Z,22.81
2017-07-16T11:48:37.730Z,22.85
2017-07-16T11:49:37.418Z,23.03
2017-07-16T11:50:37.746Z,23.15
2017-07-16T11:51:37.092Z,23.24
2017-07-16T11:52:37.095Z,23.38
2017-07-16T11:53:37.738Z,23.41
2017-07-16T11:54:37.085Z,23.53
2017-07-16T11:55:37.078Z,23.64
2017-07-16T11:56:37.407Z,23.66
2017-07-16T11:57:37.763Z,23.64
2017-07-16T11:58:37.421Z,23.66
2017-07-16T11:59:37.097Z,23.71
2017-07-16T12:00:37.088Z,23.82
2017-07-16T12:01:37.442Z,24.02
2017-07-16T12:02:37.418Z,24.11
2017-07-16T12:03:37.753Z,24.14
2017-07-16T12:04:37.435Z,24.04
2017-07-16T12:05:37.095Z,24.04
2017-07-16T12:06:37.444Z,23.93
2017-07-16T12:07:37.455Z,23.79
2017-07-16T12:08:37.123Z,23.5
2017-07-16T12:09:37.105Z,23.37
2017-07-16T12:10:37.107Z,23.25
2017-07-16T12:11:37.107Z,22.99
2017-07-16T12:12:37.111Z,22.89
2017-07-16T12:13:37.135Z,22.76
2017-07-16T12:14:37.446Z,22.48
2017-07-16T12:15:37.446Z,22.33
2017-07-16T12:16:37.475Z,22.27
2017-07-16T12:17:37.116Z,22.31
2017-07-16T12:18:37.782Z,22.42
2017-07-16T12:19:37.121Z,22.48
2017-07-16T12:20:37.798Z,22.31
2017-07-16T12:21:37.124Z,22.39
2017-07-16T12:22:37.123Z,22.34
2017-07-16T12:23:37.454Z,22.23
2017-07-16T12:24:37.129Z,22.18
2017-07-16T12:25:37.130Z,22.15
2017-07-16T12:26:37.458Z,22.09
2017-07-16T12:27:37.461Z,22.08
2017-07-16T12:28:37.457Z,22.12
2017-07-16T12:29:37.461Z,22.11
2017-07-16T12:30:37.154Z,22.24
2017-07-16T12:31:37.465Z,22.29
2017-07-16T12:32:37.478Z,22.38
2017-07-16T12:33:37.146Z,22.33
2017-07-16T12:34:37.141Z,22.44
2017-07-16T12:35:37.153Z,22.42
2017-07-16T12:36:37.138Z,22.59
2017-07-16T12:37:37.470Z,22.59
2017-07-16T12:38:37.473Z,22.69
2017-07-16T12:39:37.482Z,22.81
2017-07-16T12:40:37.498Z,22.78
2017-07-16T12:41:37.478Z,22.73
2017-07-16T12:42:37.491Z,22.73
2017-07-16T12:43:37.477Z,22.71
2017-07-16T12:44:37.165Z,22.78
2017-07-16T12:45:37.485Z,22.81
2017-07-16T12:46:37.491Z,22.96
2017-07-16T12:47:37.483Z,23.1
2017-07-16T12:48:37.156Z,23.18
2017-07-16T12:49:37.833Z,23.41
2017-07-16T12:50:37.157Z,23.48
2017-07-16T12:51:37.824Z,23.64
2017-07-16T12:52:37.161Z,23.79
2017-07-16T12:53:37.490Z,23.66
2017-07-16T12:54:37.165Z,23.63
2017-07-16T12:55:37.821Z,23.63
2017-07-16T12:56:37.498Z,23.63
2017-07-16T12:57:37.176Z,23.56
2017-07-16T12:58:37.191Z,23.55
2017-07-16T12:59:37.195Z,23.57
2017-07-16T13:00:37.197Z,23.55
2017-07-16T13:01:37.174Z,23.6
2017-07-16T13:02:37.872Z,23.62
2017-07-16T13:03:37.837Z,23.53
2017-07-16T13:04:37.180Z,23.45